Time,TemperatureF,DewpointF,PressureIn,WindDirection,WindDirectionDegrees,WindSpeedMPH,WindSpeedGustMPH,Humidity,HourlyPrecipIn,Conditions,Clouds,dailyrainin,SoftwareType,DateUTC
2013-10-03 00:03:00,61.1,60.0,30.09,South,182,0.0,0.0,96,0.00,,,0.00,weatherlink.com 1.10,2013-10-03 04:03:00,
2013-10-03 00:18:00,60.9,60.0,30.09,South,182,0.0,0.0,96,0.00,,,0.00,weatherlink.com 1.10,2013-10-03 04:18:00,
2013-10-03 00:33:00,60.7,60.0,30.09,South,182,0.0,0.0,97,0.00,,,0.00,weatherlink.com 1.10,2013-10-03 04:33:00,
2013-10-03 00:48:00,60.6,60.0,30.09,South,182,0.0,0.0,97,0.00,,,0.00,weatherlink.com 1.10,2013-10-03 04:48:00,
2013-10-03 01:03:00,60.5,60.0,30.09,South,182,0.0,0.0,97,0.00,,,0.00,weatherlink.com 1.10,2013-10-03 05:03:00,
2013-10-03 01:18:00,60.3,60.0,30.09,South,182,0.0,0.0,97,0.00,,,0.00,weatherlink.com 1.10,2013-10-03 05:18:00,
2013-10-03 01:33:00,60.3,60.0,30.09,South,182,0.0,0.0,97,0.00,,,0.00,weatherlink.com 1.10,2013-10-03 05:33:00,
2013-10-03 01:49:00,60.1,59.0,30.09,South,182,0.0,0.0,97,0.00,,,0.00,weatherlink.com 1.10,2013-10-03 05:49:00,
2013-10-03 02:03:00,60.1,59.0,30.09,South,182,0.0,0.0,97,0.00,,,0.00,weatherlink.com 1.10,2013-10-03 06:03:00,
2013-10-03 02:19:00,60.2,60.0,30.09,South,182,0.0,0.0,98,0.00,,,0.00,weatherlink.com 1.10,2013-10-03 06:19:00,
2013-10-03 02:34:00,60.2,60.0,30.08,South,182,0.0,0.0,98,0.00,,,0.00,weatherlink.com 1.10,2013-10-03 06:34:00,
2013-10-03 02:49:00,60.7,60.0,30.09,ESE,102,0.0,8.0,98,0.00,,,0.00,weatherlink.com 1.10,2013-10-03 06:49:00,
2013-10-03 03:04:00,61.1,61.0,30.08,ESE,102,0.0,0.0,98,0.00,,,0.00,weatherlink.com 1.10,2013-10-03 07:04:00,
2013-10-03 03:19:00,61.0,61.0,30.08,ESE,102,0.0,0.0,98,0.00,,,0.00,weatherlink.com 1.10,2013-10-03 07:19:00,
2013-10-03 03:34:00,61.0,61.0,30.08,ESE,102,0.0,1.0,98,0.00,,,0.00,weatherlink.com 1.10,2013-10-03 07:34:00,
2013-10-03 03:49:00,61.0,61.0,30.07,ESE,102,0.0,0.0,98,0.00,,,0.00,weatherlink.com 1.10,2013-10-03 07:49:00,
2013-10-03 04:04:00,61.0,61.0,30.08,ESE,102,0.0,0.0,98,0.00,,,0.00,weatherlink.com 1.10,2013-10-03 08:04:00,
2013-10-03 04:19:00,60.9,60.0,30.07,ESE,102,0.0,0.0,98,0.00,,,0.00,weatherlink.com 1.10,2013-10-03 08:19:00,
2013-10-03 04:34:00,60.7,60.0,30.07,ESE,102,0.0,0.0,98,0.00,,,0.00,weatherlink.com 1.10,2013-10-03 08:34:00,
2013-10-03 04:49:00,60.4,60.0,30.08,ESE,102,0.0,0.0,98,0.00,,,0.00,weatherlink.com 1.10,2013-10-03 08:49:00,
2013-10-03 05:04:00,60.2,60.0,30.07,ESE,102,0.0,0.0,98,0.00,,,0.00,weatherlink.com 1.10,2013-10-03 09:04:00,
2013-10-03 05:19:00,60.0,60.0,30.07,ESE,102,0.0,0.0,98,0.00,,,0.00,weatherlink.com 1.10,2013-10-03 09:19:00,
2013-10-03 05:34:00,59.9,59.0,30.07,ESE,102,0.0,0.0,98,0.00,,,0.00,weatherlink.com 1.10,2013-10-03 09:34:00,
2013-10-03 05:49:00,59.9,59.0,30.08,ESE,102,0.0,0.0,98,0.00,,,0.00,weatherlink.com 1.10,2013-10-03 09:49:00,
2013-10-03 06:04:00,59.9,59.0,30.08,ESE,102,0.0,0.0,98,0.00,,,0.00,weatherlink.com 1.10,2013-10-03 10:04:00,
2013-10-03 06:19:00,59.9,59.0,30.09,ESE,102,0.0,0.0,98,0.00,,,0.00,weatherlink.com 1.10,2013-10-03 10:19:00,
2013-10-03 06:34:00,59.9,59.0,30.09,ESE,102,0.0,0.0,98,0.00,,,0.00,weatherlink.com 1.10,2013-10-03 10:34:00,
2013-10-03 06:49:00,59.8,59.0,30.09,ESE,102,0.0,0.0,98,0.00,,,0.00,weatherlink.com 1.10,2013-10-03 10:49:00,
2013-10-03 07:04:00,59.7,59.0,30.09,ESE,102,0.0,0.0,98,0.00,,,0.00,weatherlink.com 1.10,2013-10-03 11:04:00,
2013-10-03 07:19:00,59.7,59.0,30.09,ESE,102,0.0,0.0,98,0.00,,,0.00,weatherlink.com 1.10,2013-10-03 11:19:00,
2013-10-03 07:34:00,59.7,59.0,30.09,ESE,102,0.0,0.0,98,0.00,,,0.00,weatherlink.com 1.10,2013-10-03 11:34:00,
2013-10-03 07:49:00,60.0,60.0,30.09,ESE,102,0.0,0.0,99,0.00,,,0.00,weatherlink.com 1.10,2013-10-03 11:49:00,
2013-10-03 08:04:00,60.4,60.0,30.10,SSE,160,0.0,0.0,99,0.00,,,0.00,weatherlink.com 1.10,2013-10-03 12:04:00,
2013-10-03 08:19:00,61.1,61.0,30.10,SSE,160,0.0,0.0,99,0.00,,,0.00,weatherlink.com 1.10,2013-10-03 12:19:00,
2013-10-03 08:34:00,62.1,62.0,30.11,SSE,160,0.0,0.0,99,0.00,,,0.00,weatherlink.com 1.10,2013-10-03 12:34:00,
2013-10-03 08:49:00,63.1,63.0,30.11,SSE,159,0.0,0.0,99,0.00,,,0.00,weatherlink.com 1.10,2013-10-03 12:49:00,
2013-10-03 09:04:00,63.9,64.0,30.11,WNW,282,1.0,2.0,99,0.00,,,0.00,weatherlink.com 1.10,2013-10-03 13:04:00,
2013-10-03 09:19:00,64.2,64.0,30.11,WSW,242,0.0,2.0,99,0.00,,,0.00,weatherlink.com 1.10,2013-10-03 13:19:00,
2013-10-03 09:34:00,64.8,64.0,30.12,WSW,242,0.0,1.0,98,0.00,,,0.00,weatherlink.com 1.10,2013-10-03 13:34:00,
2013-10-03 09:49:00,65.5,65.0,30.12,South,175,0.0,1.0,97,0.00,,,0.00,weatherlink.com 1.10,2013-10-03 13:49:00,
2013-10-03 10:04:00,66.5,65.0,30.12,South,175,0.0,2.0,95,0.00,,,0.00,weatherlink.com 1.10,2013-10-03 14:04:00,
2013-10-03 10:19:00,67.9,66.0,30.12,South,175,0.0,0.0,94,0.00,,,0.00,weatherlink.com 1.10,2013-10-03 14:19:00,
2013-10-03 10:34:00,70.5,67.0,30.12,West,261,0.0,4.0,89,0.00,,,0.00,weatherlink.com 1.10,2013-10-03 14:34:00,
2013-10-03 10:49:00,72.4,67.0,30.12,SW,229,0.0,3.0,84,0.00,,,0.00,weatherlink.com 1.10,2013-10-03 14:49:00,
2013-10-03 11:04:00,73.7,66.0,30.12,WSW,252,0.0,2.0,78,0.00,,,0.00,weatherlink.com 1.10,2013-10-03 15:04:00,
2013-10-03 11:20:00,74.6,67.0,30.12,SE,137,0.0,2.0,77,0.00,,,0.00,weatherlink.com 1.10,2013-10-03 15:20:00,
2013-10-03 11:35:00,75.3,67.0,30.12,SE,133,1.0,2.0,76,0.00,,,0.00,weatherlink.com 1.10,2013-10-03 15:35:00,
2013-10-03 11:50:00,76.4,66.0,30.11,SW,234,0.0,3.0,71,0.00,,,0.00,weatherlink.com 1.10,2013-10-03 15:50:00,
2013-10-03 12:05:00,77.6,66.0,30.11,ESE,119,2.0,4.0,67,0.00,,,0.00,weatherlink.com 1.10,2013-10-03 16:05:00,
2013-10-03 12:20:00,79.1,66.0,30.11,West,270,0.0,3.0,65,0.00,,,0.00,weatherlink.com 1.10,2013-10-03 16:20:00,
2013-10-03 12:35:00,80.2,66.0,30.10,East,88,1.0,5.0,62,0.00,,,0.00,weatherlink.com 1.10,2013-10-03 16:35:00,
2013-10-03 12:50:00,80.9,67.0,30.10,SE,126,0.0,5.0,63,0.00,,,0.00,weatherlink.com 1.10,2013-10-03 16:50:00,
2013-10-03 13:05:00,82.1,67.0,30.09,NW,306,0.0,3.0,61,0.00,,,0.00,weatherlink.com 1.10,2013-10-03 17:05:00,
2013-10-03 13:20:00,82.4,66.0,30.09,ESE,102,2.0,5.0,57,0.00,,,0.00,weatherlink.com 1.10,2013-10-03 17:20:00,
2013-10-03 13:35:00,82.4,65.0,30.09,ESE,116,0.0,3.0,56,0.00,,,0.00,weatherlink.com 1.10,2013-10-03 17:35:00,
2013-10-03 13:50:00,81.4,66.0,30.08,WNW,291,0.0,3.0,60,0.00,,,0.00,weatherlink.com 1.10,2013-10-03 17:50:00,
2013-10-03 14:05:00,80.9,66.0,30.08,East,91,0.0,3.0,61,0.00,,,0.00,weatherlink.com 1.10,2013-10-03 18:05:00,
2013-10-03 14:20:00,81.9,67.0,30.08,NNW,327,5.0,5.0,60,0.00,,,0.00,weatherlink.com 1.10,2013-10-03 18:20:00,
2013-10-03 14:35:00,82.5,64.0,30.07,ESE,112,1.0,5.0,54,0.00,,,0.00,weatherlink.com 1.10,2013-10-03 18:35:00,
2013-10-03 14:50:00,83.8,65.0,30.07,WNW,285,3.0,5.0,54,0.00,,,0.00,weatherlink.com 1.10,2013-10-03 18:50:00,
2013-10-03 15:05:00,82.7,65.0,30.06,ESE,103,2.0,4.0,55,0.00,,,0.00,weatherlink.com 1.10,2013-10-03 19:05:00,
2013-10-03 15:20:00,83.8,65.0,30.05,SSE,157,1.0,7.0,53,0.00,,,0.00,weatherlink.com 1.10,2013-10-03 19:20:00,
2013-10-03 15:35:00,83.9,64.0,30.05,ESE,108,2.0,4.0,52,0.00,,,0.00,weatherlink.com 1.10,2013-10-03 19:35:00,
2013-10-03 15:50:00,84.3,65.0,30.05,SSW,208,1.0,8.0,52,0.00,,,0.00,weatherlink.com 1.10,2013-10-03 19:50:00,
2013-10-03 16:05:00,84.6,63.0,30.05,North,355,1.0,4.0,49,0.00,,,0.00,weatherlink.com 1.10,2013-10-03 20:05:00,
2013-10-03 16:20:00,84.7,63.0,30.05,SSE,148,0.0,5.0,49,0.00,,,0.00,weatherlink.com 1.10,2013-10-03 20:20:00,
2013-10-03 16:35:00,84.0,64.0,30.04,North,360,1.0,5.0,52,0.00,,,0.00,weatherlink.com 1.10,2013-10-03 20:35:00,
2013-10-03 16:50:00,83.9,64.0,30.04,SE,142,0.0,5.0,52,0.00,,,0.00,weatherlink.com 1.10,2013-10-03 20:50:00,
2013-10-03 17:08:00,84.1,64.0,30.04,ESE,122,0.0,5.0,51,0.00,,,0.00,weatherlink.com 1.10,2013-10-03 21:08:00,
2013-10-03 17:20:00,83.8,64.0,30.05,SE,126,0.0,3.0,52,0.00,,,0.00,weatherlink.com 1.10,2013-10-03 21:20:00,
2013-10-03 17:35:00,83.1,66.0,30.05,ESE,107,0.0,3.0,56,0.00,,,0.00,weatherlink.com 1.10,2013-10-03 21:35:00,
2013-10-03 17:50:00,82.9,66.0,30.04,ESE,108,1.0,1.0,57,0.00,,,0.00,weatherlink.com 1.10,2013-10-03 21:50:00,
2013-10-03 18:05:00,81.4,66.0,30.05,ESE,110,0.0,1.0,59,0.00,,,0.00,weatherlink.com 1.10,2013-10-03 22:05:00,
2013-10-03 18:20:00,80.0,67.0,30.05,ESE,111,0.0,1.0,64,0.00,,,0.00,weatherlink.com 1.10,2013-10-03 22:20:00,
2013-10-03 18:35:00,78.2,67.0,30.05,ESE,111,0.0,1.0,68,0.00,,,0.00,weatherlink.com 1.10,2013-10-03 22:35:00,
2013-10-03 18:50:00,76.8,67.0,30.05,ESE,111,0.0,0.0,71,0.00,,,0.00,weatherlink.com 1.10,2013-10-03 22:50:00,
2013-10-03 19:05:00,75.3,67.0,30.06,ESE,111,0.0,0.0,75,0.00,,,0.00,weatherlink.com 1.10,2013-10-03 23:05:00,
2013-10-03 19:20:00,73.1,66.0,30.05,ESE,111,0.0,0.0,79,0.00,,,0.00,weatherlink.com 1.10,2013-10-03 23:20:00,
2013-10-03 19:35:00,71.3,66.0,30.06,ESE,111,0.0,0.0,82,0.00,,,0.00,weatherlink.com 1.10,2013-10-03 23:35:00,
2013-10-03 19:50:00,69.8,65.0,30.06,ESE,111,0.0,0.0,85,0.00,,,0.00,weatherlink.com 1.10,2013-10-03 23:50:00,
2013-10-03 20:05:00,68.7,65.0,30.06,ESE,111,0.0,0.0,88,0.00,,,0.00,weatherlink.com 1.10,2013-10-04 00:05:00,
2013-10-03 20:20:00,67.7,64.0,30.06,ESE,111,0.0,0.0,89,0.00,,,0.00,weatherlink.com 1.10,2013-10-04 00:20:00,
2013-10-03 20:35:00,67.1,64.0,30.06,ESE,111,0.0,0.0,90,0.00,,,0.00,weatherlink.com 1.10,2013-10-04 00:35:00,
2013-10-03 20:50:00,66.6,64.0,30.07,ESE,111,0.0,0.0,91,0.00,,,0.00,weatherlink.com 1.10,2013-10-04 00:50:00,
2013-10-03 21:05:00,66.0,64.0,30.07,ESE,111,0.0,0.0,92,0.00,,,0.00,weatherlink.com 1.10,2013-10-04 01:05:00,
2013-10-03 21:20:00,65.6,64.0,30.07,ESE,111,0.0,0.0,93,0.00,,,0.00,weatherlink.com 1.10,2013-10-04 01:20:00,
2013-10-03 21:35:00,65.5,64.0,30.08,ESE,111,0.0,1.0,94,0.00,,,0.00,weatherlink.com 1.10,2013-10-04 01:35:00,
2013-10-03 21:50:00,65.6,64.0,30.09,ESE,111,0.0,0.0,94,0.00,,,0.00,weatherlink.com 1.10,2013-10-04 01:50:00,
2013-10-03 22:05:00,65.8,64.0,30.09,ESE,111,0.0,0.0,94,0.00,,,0.00,weatherlink.com 1.10,2013-10-04 02:05:00,
2013-10-03 22:21:00,65.8,64.0,30.09,ESE,111,0.0,0.0,93,0.00,,,0.00,weatherlink.com 1.10,2013-10-04 02:21:00,
2013-10-03 22:36:00,65.7,64.0,30.09,ESE,111,0.0,0.0,93,0.00,,,0.00,weatherlink.com 1.10,2013-10-04 02:36:00,
2013-10-03 22:50:00,65.3,63.0,30.09,ESE,111,0.0,0.0,93,0.00,,,0.00,weatherlink.com 1.10,2013-10-04 02:50:00,
2013-10-03 23:06:00,64.9,63.0,30.09,ESE,110,0.0,0.0,93,0.00,,,0.00,weatherlink.com 1.10,2013-10-04 03:06:00,
2013-10-03 23:21:00,64.5,63.0,30.09,ESE,111,0.0,0.0,93,0.00,,,0.00,weatherlink.com 1.10,2013-10-04 03:21:00,
2013-10-03 23:36:00,64.1,62.0,30.09,ESE,111,0.0,0.0,94,0.00,,,0.00,weatherlink.com 1.10,2013-10-04 03:36:00,
2013-10-03 23:51:00,63.7,62.0,30.09,ESE,110,0.0,0.0,94,0.00,,,0.00,weatherlink.com 1.10,2013-10-04 03:51:00,